createdAt,value
2023-01-22T00:01:05.420Z,-1.20
2023-01-22T00:03:33.272Z,-1.20
2023-01-22T00:06:01.302Z,-1.20
2023-01-22T00:08:29.071Z,-1.20
2023-01-22T00:10:57.283Z,-1.20
2023-01-22T00:13:27.690Z,-1.20
2023-01-22T00:15:57.769Z,-1.20
2023-01-22T00:18:25.685Z,-1.10
2023-01-22T00:20:55.173Z,-1.20
2023-01-22T00:23:23.406Z,-1.20
2023-01-22T00:25:51.906Z,-1.20
2023-01-22T00:28:19.756Z,-1.20
2023-01-22T00:30:48.955Z,-1.10
2023-01-22T00:33:16.712Z,-1.20
2023-01-22T00:35:44.502Z,-1.20
2023-01-22T00:38:12.261Z,-1.10
2023-01-22T00:40:39.994Z,-1.10
2023-01-22T00:43:07.815Z,-1.10
2023-01-22T00:45:35.656Z,-1.10
2023-01-22T00:48:05.032Z,-1.10
2023-01-22T00:50:33.075Z,-1.10
2023-01-22T00:53:00.852Z,-1.10
2023-01-22T00:55:28.655Z,-1.10
2023-01-22T00:57:56.457Z,-1.20
2023-01-22T01:00:24.314Z,-1.10
2023-01-22T01:03:08.919Z,-1.10
2023-01-22T01:05:38.044Z,-1.00
2023-01-22T01:08:06.199Z,-1.00
2023-01-22T01:10:34.839Z,-1.00
2023-01-22T01:13:02.591Z,-1.10
2023-01-22T01:15:30.343Z,-1.20
2023-01-22T01:17:58.112Z,-1.10
2023-01-22T01:20:25.901Z,-1.20
2023-01-22T01:22:55.015Z,-1.10
2023-01-22T01:25:22.791Z,-1.20
2023-01-22T01:27:50.571Z,-1.30
2023-01-22T01:30:18.970Z,-1.20
2023-01-22T01:32:46.939Z,-1.10
2023-01-22T01:35:14.709Z,-1.20
2023-01-22T01:37:42.483Z,-1.20
2023-01-22T01:40:13.278Z,-1.10
2023-01-22T01:42:43.223Z,-1.10
2023-01-22T01:45:25.844Z,-1.10
2023-01-22T01:47:57.381Z,-1.00
2023-01-22T01:50:27.397Z,-1.10
2023-01-22T01:52:55.419Z,-1.10
2023-01-22T01:55:28.126Z,-1.10
2023-01-22T01:57:59.586Z,-1.10
2023-01-22T02:00:29.765Z,-1.10
2023-01-22T02:02:58.461Z,-1.10
2023-01-22T02:05:28.844Z,-1.00
2023-01-22T02:07:56.853Z,-1.10
2023-01-22T02:10:26.349Z,-1.10
2023-01-22T02:12:58.542Z,-1.10
2023-01-22T02:15:26.912Z,-1.10
2023-01-22T02:17:54.711Z,-1.00
2023-01-22T02:20:22.610Z,-1.00
2023-01-22T02:22:51.797Z,-1.00
2023-01-22T02:25:20.486Z,-1.00
2023-01-22T02:27:48.224Z,-1.00
2023-01-22T02:30:16.899Z,-1.10
2023-01-22T02:32:44.832Z,-1.20
2023-01-22T02:35:12.622Z,-1.10
2023-01-22T02:37:40.387Z,-1.00
2023-01-22T02:40:10.967Z,-1.10
2023-01-22T02:42:39.000Z,-1.10
2023-01-22T02:45:07.685Z,-1.20
2023-01-22T02:47:36.073Z,-1.10
2023-01-22T02:50:04.199Z,-1.10
2023-01-22T02:52:32.031Z,-1.10
2023-01-22T02:55:00.009Z,-1.10
2023-01-22T02:57:30.967Z,-1.20
2023-01-22T02:59:59.100Z,-1.10
2023-01-22T03:02:27.155Z,-1.20
2023-01-22T03:05:04.734Z,-1.30
2023-01-22T03:07:34.367Z,-1.20
2023-01-22T03:10:02.118Z,-1.20
2023-01-22T03:12:45.155Z,-1.20
2023-01-22T03:15:30.424Z,-1.10
2023-01-22T03:18:16.095Z,-1.40
2023-01-22T03:21:01.251Z,-1.30
2023-01-22T03:23:29.062Z,-1.30
2023-01-22T03:25:57.464Z,-1.40
2023-01-22T03:28:26.613Z,-1.50
2023-01-22T03:30:54.492Z,-1.50
2023-01-22T03:33:22.409Z,-1.50
2023-01-22T03:35:50.292Z,-1.30
2023-01-22T03:38:18.082Z,-1.30
2023-01-22T03:40:45.908Z,-1.30
2023-01-22T03:43:13.678Z,-1.30
2023-01-22T03:45:42.853Z,-1.20
2023-01-22T03:48:10.622Z,-1.20
2023-01-22T03:50:38.420Z,-1.20
2023-01-22T03:53:06.359Z,-1.30
2023-01-22T03:55:34.144Z,-1.20
2023-01-22T03:58:01.985Z,-1.20
2023-01-22T04:00:30.239Z,-1.10
2023-01-22T04:02:59.343Z,-1.10
2023-01-22T04:05:27.175Z,-1.10
2023-01-22T04:07:54.975Z,-1.10
2023-01-22T04:10:22.743Z,-1.10
2023-01-22T04:12:50.497Z,-1.10
2023-01-22T04:15:18.408Z,-1.10
2023-01-22T04:17:46.201Z,-1.10
2023-01-22T04:20:15.601Z,-1.10
2023-01-22T04:22:43.782Z,-1.10
2023-01-22T04:25:11.563Z,-1.20
2023-01-22T04:27:39.335Z,-1.10
2023-01-22T04:30:08.424Z,-1.20
2023-01-22T04:32:36.178Z,-1.10
2023-01-22T04:35:04.276Z,-1.10
2023-01-22T04:37:33.415Z,-1.20
2023-01-22T04:40:01.185Z,-1.30
2023-01-22T04:42:29.480Z,-1.20
2023-01-22T04:44:57.269Z,-1.20
2023-01-22T04:47:25.167Z,-1.30
2023-01-22T04:49:52.968Z,-1.20
2023-01-22T04:52:20.748Z,-1.30
2023-01-22T04:54:51.733Z,-1.20
2023-01-22T04:57:19.527Z,-1.20
2023-01-22T04:59:47.315Z,-1.30
2023-01-22T05:02:15.103Z,-1.30
2023-01-22T05:04:42.895Z,-1.20
2023-01-22T05:07:10.839Z,-1.20
2023-01-22T05:09:38.625Z,-1.10
2023-01-22T05:12:08.123Z,-1.10
2023-01-22T05:14:35.900Z,-1.20
2023-01-22T05:17:03.782Z,-1.20
2023-01-22T05:19:31.539Z,-1.20
2023-01-22T05:21:59.387Z,-1.10
2023-01-22T05:24:27.120Z,-1.20
2023-01-22T05:26:54.952Z,-1.20
2023-01-22T05:29:26.176Z,-1.30
2023-01-22T05:31:54.277Z,-1.30
2023-01-22T05:34:22.136Z,-1.20
2023-01-22T05:36:50.068Z,-1.30
2023-01-22T05:39:18.508Z,-1.40
2023-01-22T05:41:46.400Z,-1.40
2023-01-22T05:44:14.897Z,-1.30
2023-01-22T05:46:44.032Z,-1.30
2023-01-22T05:49:11.907Z,-1.30
2023-01-22T05:51:39.748Z,-1.40
2023-01-22T05:54:07.533Z,-1.30
2023-01-22T05:56:35.305Z,-1.40
2023-01-22T05:59:03.202Z,-1.40
2023-01-22T06:01:31.011Z,-1.40
2023-01-22T06:04:00.271Z,-1.40
2023-01-22T06:06:28.200Z,-1.50
2023-01-22T06:08:56.047Z,-1.60
2023-01-22T06:11:23.911Z,-1.70
2023-01-22T06:13:51.898Z,-1.60
2023-01-22T06:16:19.763Z,-1.70
2023-01-22T06:18:47.624Z,-1.60
2023-01-22T06:21:17.251Z,-1.50
2023-01-22T06:23:45.077Z,-1.50
2023-01-22T06:26:12.971Z,-1.40
2023-01-22T06:28:40.859Z,-1.50
2023-01-22T06:31:08.765Z,-1.40
2023-01-22T06:33:37.997Z,-1.50
2023-01-22T06:36:06.974Z,-1.50
2023-01-22T06:38:37.927Z,-1.40
2023-01-22T06:41:05.922Z,-1.30
2023-01-22T06:43:33.809Z,-1.30
2023-01-22T06:46:03.773Z,-1.20
2023-01-22T06:48:31.567Z,-1.20
2023-01-22T06:50:59.978Z,-1.30
2023-01-22T06:53:28.122Z,-1.30
2023-01-22T06:55:59.881Z,-1.30
2023-01-22T06:58:27.941Z,-1.30
2023-01-22T07:00:55.813Z,-1.40
2023-01-22T07:03:23.664Z,-1.40
2023-01-22T07:05:57.610Z,-1.40
2023-01-22T07:08:25.734Z,-1.40
2023-01-22T07:10:53.634Z,-1.30
2023-01-22T07:13:22.847Z,-1.40
2023-01-22T07:15:50.870Z,-1.30
2023-01-22T07:18:20.841Z,-1.50
2023-01-22T07:20:48.667Z,-1.40
2023-01-22T07:23:16.636Z,-1.30
2023-01-22T07:25:47.247Z,-1.20
2023-01-22T07:28:15.973Z,-1.20
2023-01-22T07:30:47.142Z,-1.20
2023-01-22T07:33:16.270Z,-1.20
2023-01-22T07:35:44.595Z,-1.20
2023-01-22T07:38:13.035Z,-1.30
2023-01-22T07:40:40.910Z,-1.30
2023-01-22T07:43:08.719Z,-1.20
2023-01-22T07:45:36.560Z,-1.10
2023-01-22T07:48:07.764Z,-1.10
2023-01-22T07:50:36.903Z,-1.20
2023-01-22T07:53:04.856Z,-1.20
2023-01-22T07:55:32.782Z,-1.10
2023-01-22T07:58:01.600Z,-1.00
2023-01-22T08:00:29.708Z,-1.00
2023-01-22T08:02:57.633Z,-1.00
2023-01-22T08:05:26.815Z,-1.10
2023-01-22T08:07:54.650Z,-1.10
2023-01-22T08:10:22.560Z,-1.20
2023-01-22T08:12:50.363Z,-0.90
2023-01-22T08:15:18.291Z,-0.90
2023-01-22T08:17:48.928Z,-1.20
2023-01-22T08:20:17.414Z,-1.20
2023-01-22T08:22:46.712Z,-1.40
2023-01-22T08:25:14.555Z,-1.30
2023-01-22T08:27:42.563Z,-1.20
2023-01-22T08:30:12.207Z,-1.20
2023-01-22T08:32:41.159Z,-1.00
2023-01-22T08:35:09.754Z,-1.30
2023-01-22T08:37:37.806Z,-1.20
2023-01-22T08:40:09.942Z,-1.20
2023-01-22T08:42:37.790Z,-1.00
2023-01-22T08:45:06.666Z,-1.30
2023-01-22T08:47:34.580Z,-1.30
2023-01-22T08:50:03.918Z,-1.20
2023-01-22T08:52:31.818Z,-1.30
2023-01-22T08:54:59.657Z,-1.10
2023-01-22T08:57:30.595Z,-0.90
2023-01-22T09:00:01.598Z,-1.00
2023-01-22T09:02:29.754Z,-0.70
2023-01-22T09:04:57.661Z,-0.70
2023-01-22T09:07:25.583Z,-0.80
2023-01-22T09:09:53.499Z,-0.60
2023-01-22T09:12:21.336Z,-0.50
2023-01-22T09:14:50.588Z,-0.60
2023-01-22T09:17:20.340Z,-0.60
2023-01-22T09:19:49.797Z,-0.60
2023-01-22T09:22:18.047Z,-0.60
2023-01-22T09:24:45.920Z,-0.60
2023-01-22T09:27:13.840Z,-0.40
2023-01-22T09:29:42.866Z,-0.30
2023-01-22T09:32:12.059Z,-0.40
2023-01-22T09:34:39.912Z,-0.40
2023-01-22T09:37:08.062Z,-0.30
2023-01-22T09:39:35.956Z,-0.40
2023-01-22T09:42:05.221Z,-0.40
2023-01-22T09:44:38.015Z,-0.60
2023-01-22T09:47:11.344Z,-0.30
2023-01-22T09:49:55.014Z,-0.10
2023-01-22T09:52:30.484Z,0.20
2023-01-22T09:54:58.443Z,0.60
2023-01-22T09:57:31.541Z,0.70
2023-01-22T09:59:59.955Z,0.50
2023-01-22T10:02:32.008Z,0.40
2023-01-22T10:05:07.271Z,0.50
2023-01-22T10:07:40.648Z,0.40
2023-01-22T10:10:20.840Z,0.50
2023-01-22T10:12:54.783Z,0.50
2023-01-22T10:15:25.142Z,0.50
2023-01-22T10:17:55.519Z,0.50
2023-01-22T10:20:25.666Z,0.40
2023-01-22T10:22:56.969Z,0.40
2023-01-22T10:25:27.719Z,0.40
2023-01-22T10:28:11.164Z,0.20
2023-01-22T10:30:47.890Z,0.10
2023-01-22T10:33:20.256Z,0.30
2023-01-22T10:35:51.966Z,0.40
2023-01-22T10:38:25.952Z,0.60
2023-01-22T10:40:57.704Z,0.40
2023-01-22T10:43:33.412Z,0.20
2023-01-22T10:46:08.029Z,0.10
2023-01-22T10:48:39.535Z,0.10
2023-01-22T10:51:15.691Z,-0.20
2023-01-22T10:53:48.999Z,-0.40
2023-01-22T10:56:28.629Z,-0.40
2023-01-22T10:58:57.898Z,-0.50
2023-01-22T11:01:30.790Z,-0.60
2023-01-22T11:03:58.714Z,-0.50
2023-01-22T11:06:35.471Z,-0.50
2023-01-22T11:09:09.164Z,-0.30
2023-01-22T11:11:39.844Z,-0.40
2023-01-22T11:14:14.364Z,-0.30
2023-01-22T11:16:43.413Z,-0.20
2023-01-22T11:19:16.811Z,-0.40
2023-01-22T11:21:50.363Z,-0.20
2023-01-22T11:24:23.368Z,-0.30
2023-01-22T11:27:05.923Z,0.00
2023-01-22T11:29:57.309Z,0.20
2023-01-22T11:32:46.030Z,0.10
2023-01-22T11:35:22.890Z,0.10
2023-01-22T11:38:09.377Z,0.40
2023-01-22T11:40:43.325Z,-0.10
2023-01-22T11:43:23.456Z,0.30
2023-01-22T11:46:15.841Z,0.00
2023-01-22T11:48:56.091Z,-0.20
2023-01-22T11:51:32.440Z,0.00
2023-01-22T11:54:42.091Z,-0.10
2023-01-22T11:57:17.992Z,-0.10
2023-01-22T12:02:50.503Z,0.10
2023-01-22T12:05:30.886Z,0.20
2023-01-22T12:08:18.096Z,0.20
2023-01-22T12:11:08.778Z,0.50
2023-01-22T12:14:10.523Z,0.40
2023-01-22T12:16:45.611Z,0.40
2023-01-22T12:19:54.439Z,0.60
2023-01-22T12:22:30.265Z,0.60
2023-01-22T12:25:03.023Z,0.70
2023-01-22T12:27:35.953Z,0.70
2023-01-22T12:30:20.624Z,0.70
2023-01-22T12:32:54.791Z,0.90
2023-01-22T12:35:25.792Z,0.70
2023-01-22T12:38:03.214Z,0.90
2023-01-22T12:41:03.204Z,0.90
2023-01-22T12:43:38.272Z,0.50
2023-01-22T12:46:13.690Z,0.60
2023-01-22T12:48:49.134Z,0.60
2023-01-22T12:51:29.735Z,0.60
2023-01-22T12:54:08.169Z,0.40
2023-01-22T12:56:36.128Z,0.40
2023-01-22T12:59:05.271Z,0.50
2023-01-22T13:01:35.199Z,0.60
2023-01-22T13:04:06.669Z,0.40
2023-01-22T13:06:38.126Z,0.10
2023-01-22T13:09:07.767Z,0.50
2023-01-22T13:11:38.006Z,0.50
2023-01-22T13:14:18.696Z,0.30
2023-01-22T13:16:53.840Z,0.40
2023-01-22T13:19:25.142Z,0.30
2023-01-22T13:21:53.816Z,0.40
2023-01-22T13:24:22.524Z,0.50
2023-01-22T13:26:56.989Z,0.60
2023-01-22T13:29:28.849Z,0.60
2023-01-22T13:31:58.729Z,0.40
2023-01-22T13:34:27.602Z,0.50
2023-01-22T13:36:56.407Z,0.60
2023-01-22T13:39:27.599Z,0.50
2023-01-22T13:41:57.427Z,0.30
2023-01-22T13:44:31.743Z,0.40
2023-01-22T13:47:00.217Z,0.10
2023-01-22T13:49:29.536Z,0.10
2023-01-22T13:52:04.682Z,0.30
2023-01-22T13:54:36.360Z,0.40
2023-01-22T13:57:05.416Z,0.40
2023-01-22T13:59:35.554Z,0.00
2023-01-22T14:02:19.861Z,0.20
2023-01-22T14:04:48.531Z,0.40
2023-01-22T14:07:25.643Z,0.60
2023-01-22T14:09:54.243Z,0.30
2023-01-22T14:12:25.069Z,0.30
2023-01-22T14:14:55.091Z,0.40
2023-01-22T14:17:25.279Z,0.20
2023-01-22T14:19:53.351Z,0.20
2023-01-22T14:22:21.283Z,0.20
2023-01-22T14:24:52.297Z,0.30
2023-01-22T14:27:20.775Z,0.30
2023-01-22T14:29:48.672Z,0.40
2023-01-22T14:32:17.809Z,0.30
2023-01-22T14:34:45.742Z,0.20
2023-01-22T14:37:16.440Z,0.20
2023-01-22T14:39:44.476Z,0.00
2023-01-22T14:42:12.263Z,0.00
2023-01-22T14:44:40.152Z,0.10
2023-01-22T14:47:08.019Z,0.10
2023-01-22T14:49:37.126Z,0.20
2023-01-22T14:52:05.831Z,0.20
2023-01-22T14:54:33.748Z,0.00
2023-01-22T14:57:03.330Z,0.00
2023-01-22T14:59:31.217Z,0.00
2023-01-22T15:01:59.141Z,0.10
2023-01-22T15:04:26.917Z,0.10
2023-01-22T15:06:56.093Z,0.00
2023-01-22T15:09:23.915Z,0.00
2023-01-22T15:11:51.779Z,0.00
2023-01-22T15:14:19.648Z,0.00
2023-01-22T15:16:47.469Z,0.00
2023-01-22T15:19:17.544Z,0.00
2023-01-22T15:21:46.321Z,0.00
2023-01-22T15:24:15.627Z,0.10
2023-01-22T15:26:43.775Z,0.00
2023-01-22T15:29:13.763Z,0.10
2023-01-22T15:31:42.320Z,0.10
2023-01-22T15:34:10.469Z,0.00
2023-01-22T15:36:40.392Z,-0.10
2023-01-22T15:39:09.186Z,-0.10
2023-01-22T15:41:38.497Z,-0.20
2023-01-22T15:44:07.357Z,-0.10
2023-01-22T15:46:37.728Z,-0.10
2023-01-22T15:49:08.016Z,0.00
2023-01-22T15:51:36.948Z,0.00
2023-01-22T15:54:06.629Z,-0.10
2023-01-22T15:56:36.129Z,-0.20
2023-01-22T15:59:06.016Z,-0.20
2023-01-22T16:01:34.322Z,-0.10
2023-01-22T16:04:03.020Z,-0.10
2023-01-22T16:06:32.700Z,-0.10
2023-01-22T16:09:02.128Z,-0.10
2023-01-22T16:11:30.897Z,-0.10
2023-01-22T16:13:59.067Z,-0.20
2023-01-22T16:16:30.976Z,-0.20
2023-01-22T16:19:00.119Z,-0.20
2023-01-22T16:21:28.240Z,-0.30
2023-01-22T16:23:58.216Z,-0.40
2023-01-22T16:26:28.050Z,-0.40
2023-01-22T16:28:58.106Z,-0.40
2023-01-22T16:31:29.151Z,-0.30
2023-01-22T16:33:58.363Z,-0.30
2023-01-22T16:36:29.003Z,-0.20
2023-01-22T16:38:57.319Z,-0.30
2023-01-22T16:41:27.891Z,-0.30
2023-01-22T16:43:59.205Z,-0.30
2023-01-22T16:46:30.300Z,-0.30
2023-01-22T16:49:00.352Z,-0.20
2023-01-22T16:51:33.544Z,-0.20
2023-01-22T16:54:01.680Z,-0.30
2023-01-22T16:56:29.499Z,-0.30
2023-01-22T16:58:57.336Z,-0.30
2023-01-22T17:01:25.776Z,-0.30
2023-01-22T17:03:55.020Z,-0.30
2023-01-22T17:06:25.840Z,-0.30
2023-01-22T17:08:54.312Z,-0.30
2023-01-22T17:11:22.778Z,-0.40
2023-01-22T17:13:51.268Z,-0.30
2023-01-22T17:16:20.293Z,-0.40
2023-01-22T17:18:48.259Z,-0.40
2023-01-22T17:21:19.640Z,-0.40
2023-01-22T17:23:47.580Z,-0.40
2023-01-22T17:26:16.923Z,-0.40
2023-01-22T17:28:45.955Z,-0.50
2023-01-22T17:31:16.355Z,-0.60
2023-01-22T17:33:44.929Z,-0.70
2023-01-22T17:36:14.799Z,-0.70
2023-01-22T17:38:43.980Z,-0.80
2023-01-22T17:41:14.110Z,-0.80
2023-01-22T17:43:43.514Z,-0.70
2023-01-22T17:46:13.590Z,-0.70
2023-01-22T17:48:41.502Z,-0.90
2023-01-22T17:51:11.368Z,-1.00
2023-01-22T17:53:40.617Z,-0.90
2023-01-22T17:56:12.866Z,-1.00
2023-01-22T17:58:43.385Z,-1.00
2023-01-22T18:01:12.710Z,-0.90
2023-01-22T18:03:40.673Z,-0.90
2023-01-22T18:06:08.977Z,-1.00
2023-01-22T18:08:39.270Z,-1.00
2023-01-22T18:11:11.005Z,-1.00
2023-01-22T18:13:39.969Z,-1.00
2023-01-22T18:16:09.205Z,-1.00
2023-01-22T18:18:38.124Z,-1.00
2023-01-22T18:21:07.877Z,-1.00
2023-01-22T18:26:16.292Z,-1.10
2023-01-22T18:28:44.060Z,-1.10
2023-01-22T18:31:14.583Z,-1.20
2023-01-22T18:33:44.409Z,-1.20
2023-01-22T18:36:15.627Z,-1.20
2023-01-22T18:38:44.081Z,-1.10
2023-01-22T18:41:15.092Z,-1.20
2023-01-22T18:43:43.624Z,-1.20
2023-01-22T18:46:13.114Z,-1.30
2023-01-22T18:48:42.352Z,-1.20
2023-01-22T18:51:14.809Z,-1.20
2023-01-22T18:53:43.229Z,-1.20
2023-01-22T18:56:12.612Z,-1.20
2023-01-22T18:58:45.211Z,-1.20
2023-01-22T19:01:15.963Z,-1.20
2023-01-22T19:03:45.358Z,-1.20
2023-01-22T19:06:16.282Z,-1.20
2023-01-22T19:08:45.635Z,-1.20
2023-01-22T19:11:14.398Z,-1.20
2023-01-22T19:13:44.967Z,-1.30
2023-01-22T19:16:14.945Z,-1.30
2023-01-22T19:18:43.898Z,-1.20
2023-01-22T19:21:14.135Z,-1.30
2023-01-22T19:23:45.780Z,-1.40
2023-01-22T19:26:15.618Z,-1.50
2023-01-22T19:28:46.021Z,-1.50
2023-01-22T19:31:18.662Z,-1.60
2023-01-22T19:33:46.735Z,-1.40
2023-01-22T19:36:14.787Z,-1.40
2023-01-22T19:38:42.565Z,-1.50
2023-01-22T19:41:10.581Z,-1.50
2023-01-22T19:43:38.656Z,-1.50
2023-01-22T19:46:11.588Z,-1.50
2023-01-22T19:48:40.098Z,-1.50
2023-01-22T19:51:10.815Z,-1.40
2023-01-22T19:53:39.043Z,-1.50
2023-01-22T19:56:16.471Z,-1.50
2023-01-22T19:58:44.389Z,-1.60
2023-01-22T20:01:14.025Z,-1.80
2023-01-22T20:03:41.880Z,-1.90
2023-01-22T20:06:12.007Z,-1.90
2023-01-22T20:08:39.904Z,-1.80
2023-01-22T20:11:09.673Z,-1.70
2023-01-22T20:13:38.543Z,-1.70
2023-01-22T20:16:07.610Z,-1.80
2023-01-22T20:18:36.859Z,-1.80
2023-01-22T20:21:04.950Z,-1.80
2023-01-22T20:23:32.847Z,-1.90
2023-01-22T20:26:02.059Z,-1.90
2023-01-22T20:28:30.034Z,-1.80
2023-01-22T20:30:59.274Z,-1.90
2023-01-22T20:33:28.002Z,-2.10
2023-01-22T20:35:58.830Z,-2.20
2023-01-22T20:38:27.431Z,-2.10
2023-01-22T20:40:55.324Z,-2.10
2023-01-22T20:43:23.147Z,-2.00
2023-01-22T20:46:00.490Z,-1.90
2023-01-22T20:48:29.243Z,-1.90
2023-01-22T20:50:58.583Z,-2.00
2023-01-22T20:53:27.803Z,-2.00
2023-01-22T20:56:00.349Z,-2.10
2023-01-22T20:58:28.709Z,-2.10
2023-01-22T21:00:57.008Z,-2.10
2023-01-22T21:03:25.143Z,-2.10
2023-01-22T21:05:52.893Z,-2.20
2023-01-22T21:08:22.011Z,-2.30
2023-01-22T21:10:57.418Z,-2.20
2023-01-22T21:13:25.850Z,-2.30
2023-01-22T21:15:54.316Z,-2.40
2023-01-22T21:18:23.360Z,-2.30
2023-01-22T21:20:51.328Z,-2.40
2023-01-22T21:23:19.467Z,-2.40
2023-01-22T21:25:48.644Z,-2.30
2023-01-22T21:28:16.412Z,-2.50
2023-01-22T21:30:44.240Z,-2.60
2023-01-22T21:33:12.051Z,-2.70
2023-01-22T21:35:39.820Z,-2.70
2023-01-22T21:38:07.602Z,-2.70
2023-01-22T21:40:35.386Z,-2.70
2023-01-22T21:43:22.135Z,-2.80
2023-01-22T21:46:07.701Z,-2.70
2023-01-22T21:48:35.512Z,-2.70
2023-01-22T21:51:03.597Z,-2.70
2023-01-22T21:53:31.539Z,-2.70
2023-01-22T21:55:59.321Z,-2.70
2023-01-22T21:58:28.574Z,-2.60
2023-01-22T22:00:56.872Z,-2.70
2023-01-22T22:03:24.680Z,-2.80
2023-01-22T22:06:02.019Z,-2.80
2023-01-22T22:08:30.382Z,-2.70
2023-01-22T22:10:58.375Z,-2.70
2023-01-22T22:13:26.164Z,-2.70
2023-01-22T22:15:55.259Z,-2.80
2023-01-22T22:18:23.231Z,-2.80
2023-01-22T22:20:51.395Z,-2.80
2023-01-22T22:23:19.163Z,-2.80
2023-01-22T22:25:47.967Z,-2.90
2023-01-22T22:28:17.529Z,-2.80
2023-01-22T22:30:45.550Z,-2.70
2023-01-22T22:33:14.648Z,-2.70
2023-01-22T22:35:45.004Z,-2.70
2023-01-22T22:38:13.112Z,-2.70
2023-01-22T22:40:40.949Z,-2.60
2023-01-22T22:43:08.924Z,-2.70
2023-01-22T22:45:38.161Z,-2.60
2023-01-22T22:48:06.821Z,-2.50
2023-01-22T22:50:35.931Z,-2.50
2023-01-22T22:53:03.724Z,-2.50
2023-01-22T22:55:31.612Z,-2.40
2023-01-22T22:57:59.385Z,-2.30
2023-01-22T23:00:27.192Z,-2.30
2023-01-22T23:02:55.948Z,-2.20
2023-01-22T23:05:23.768Z,-2.30
2023-01-22T23:07:52.891Z,-2.20
2023-01-22T23:10:29.579Z,-2.30
2023-01-22T23:12:58.982Z,-2.40
2023-01-22T23:15:28.167Z,-2.30
2023-01-22T23:17:57.275Z,-2.30
2023-01-22T23:20:26.204Z,-2.40
2023-01-22T23:22:56.990Z,-2.30
2023-01-22T23:25:25.239Z,-2.30
2023-01-22T23:27:53.418Z,-2.30
2023-01-22T23:30:21.637Z,-2.20
2023-01-22T23:32:49.612Z,-2.20
2023-01-22T23:35:17.463Z,-2.30
2023-01-22T23:37:45.200Z,-2.20
2023-01-22T23:40:14.752Z,-2.20
2023-01-22T23:42:42.488Z,-2.10
2023-01-22T23:45:12.197Z,-2.10
2023-01-22T23:47:39.990Z,-2.10
2023-01-22T23:50:08.852Z,-2.00
2023-01-22T23:52:36.916Z,-2.00
2023-01-22T23:55:05.187Z,-2.00
2023-01-22T23:57:34.301Z,-2.00
